createdAt,value
2023-08-17T00:01:20.699Z,3.58
2023-08-17T00:03:27.862Z,3.78
2023-08-17T00:05:37.589Z,3.85
2023-08-17T00:07:45.343Z,3.88
2023-08-17T00:09:50.446Z,4.50
2023-08-17T00:11:55.551Z,4.10
2023-08-17T00:14:04.453Z,4.07
2023-08-17T00:16:09.701Z,4.07
2023-08-17T00:18:14.823Z,4.68
2023-08-17T00:22:25.590Z,4.73
2023-08-17T00:24:36.288Z,4.28
2023-08-17T00:26:42.072Z,4.00
2023-08-17T00:28:47.490Z,4.35
2023-08-17T00:30:52.593Z,4.32
2023-08-17T00:33:14.003Z,3.85
2023-08-17T00:35:29.467Z,4.00
2023-08-17T00:37:49.213Z,4.88
2023-08-17T00:40:07.219Z,4.40
2023-08-17T00:42:23.430Z,4.63
2023-08-17T00:44:32.660Z,5.25
2023-08-17T00:49:07.107Z,5.18
2023-08-17T00:51:17.616Z,4.85
2023-08-17T00:53:24.025Z,5.80
2023-08-17T00:55:32.816Z,5.35
2023-08-17T00:57:39.011Z,4.70
2023-08-17T00:59:49.777Z,5.40
2023-08-17T01:02:00.867Z,4.78
2023-08-17T01:06:10.603Z,4.80
2023-08-17T01:10:18.403Z,4.78
2023-08-17T01:12:35.592Z,4.82
2023-08-17T01:14:47.654Z,4.47
2023-08-17T01:17:04.907Z,5.22
2023-08-17T01:19:12.881Z,4.38
2023-08-17T01:21:21.092Z,4.60
2023-08-17T01:23:28.641Z,4.43
2023-08-17T01:25:37.541Z,4.22
2023-08-17T01:27:45.184Z,4.30
2023-08-17T01:29:50.362Z,4.03
2023-08-17T01:32:04.419Z,4.50
2023-08-17T01:34:14.631Z,4.03
2023-08-17T01:36:26.446Z,4.30
2023-08-17T01:38:35.855Z,4.43
2023-08-17T01:40:38.686Z,5.53
2023-08-17T01:42:45.025Z,4.20
2023-08-17T01:44:50.281Z,4.05
2023-08-17T01:46:55.430Z,4.95
2023-08-17T01:48:59.041Z,4.32
2023-08-17T01:51:03.987Z,4.78
2023-08-17T01:55:17.258Z,4.30
2023-08-17T01:57:22.847Z,5.50
2023-08-17T01:59:30.285Z,4.75
2023-08-17T02:01:35.397Z,4.57
2023-08-17T02:03:42.583Z,4.10
2023-08-17T02:05:49.007Z,4.38
2023-08-17T02:07:54.194Z,4.55
2023-08-17T02:12:09.480Z,4.20
2023-08-17T02:14:14.482Z,4.00
2023-08-17T02:18:21.993Z,5.13
2023-08-17T02:22:31.757Z,4.65
2023-08-17T02:26:42.267Z,4.13
2023-08-17T02:28:49.890Z,5.20
2023-08-17T02:30:59.481Z,4.97
2023-08-17T02:33:07.164Z,4.85
2023-08-17T02:35:12.756Z,4.82
2023-08-17T02:37:19.691Z,5.07
2023-08-17T02:39:24.637Z,5.13
2023-08-17T02:41:31.612Z,4.53
2023-08-17T02:43:34.085Z,4.35
2023-08-17T02:45:41.654Z,4.15
2023-08-17T02:47:46.626Z,4.90
2023-08-17T02:49:54.565Z,4.40
2023-08-17T02:51:59.480Z,4.82
2023-08-17T02:54:01.797Z,6.30
2023-08-17T02:56:07.429Z,4.18
2023-08-17T02:58:12.977Z,4.43
2023-08-17T03:00:18.881Z,4.13
2023-08-17T03:02:27.089Z,4.20
2023-08-17T03:04:32.074Z,4.07
2023-08-17T03:08:41.856Z,4.50
2023-08-17T03:10:50.201Z,4.35
2023-08-17T03:12:57.013Z,4.38
2023-08-17T03:17:08.046Z,3.83
2023-08-17T03:19:16.491Z,5.57
2023-08-17T03:21:23.198Z,4.68
2023-08-17T03:23:28.142Z,5.15
2023-08-17T03:25:35.670Z,4.60
2023-08-17T03:27:42.870Z,4.25
2023-08-17T03:29:47.873Z,4.70
2023-08-17T03:34:02.438Z,4.10
2023-08-17T03:36:10.791Z,5.05
2023-08-17T03:38:13.727Z,4.50
2023-08-17T03:40:19.748Z,4.20
2023-08-17T03:42:25.508Z,5.13
2023-08-17T03:46:35.527Z,5.10
2023-08-17T03:48:40.466Z,5.38
2023-08-17T03:50:45.396Z,5.28
2023-08-17T03:52:53.664Z,5.72
2023-08-17T03:54:58.776Z,4.78
2023-08-17T03:57:04.980Z,4.93
2023-08-17T04:01:15.283Z,4.17
2023-08-17T04:03:23.503Z,4.80
2023-08-17T04:05:28.670Z,4.43
2023-08-17T04:07:33.654Z,5.35
2023-08-17T04:11:45.979Z,5.38
2023-08-17T04:15:58.545Z,5.22
2023-08-17T04:18:03.758Z,4.53
2023-08-17T04:20:10.310Z,5.22
2023-08-17T04:22:15.291Z,5.38
2023-08-17T04:26:28.889Z,4.88
2023-08-17T04:28:33.902Z,6.05
2023-08-17T04:32:44.132Z,5.60
2023-08-17T04:34:49.565Z,5.47
2023-08-17T04:36:54.565Z,5.40
2023-08-17T04:41:04.603Z,5.35
2023-08-17T04:43:14.409Z,5.70
2023-08-17T04:45:19.323Z,5.72
2023-08-17T04:47:26.640Z,4.90
2023-08-17T04:49:32.420Z,5.68
2023-08-17T04:51:37.345Z,4.93
2023-08-17T04:53:42.469Z,5.55
2023-08-17T04:55:49.837Z,5.45
2023-08-17T04:57:54.958Z,5.38
2023-08-17T05:00:02.630Z,5.60
2023-08-17T05:02:08.573Z,5.90
2023-08-17T05:04:13.627Z,5.95
2023-08-17T05:06:18.892Z,6.05
2023-08-17T05:08:23.433Z,5.55
2023-08-17T05:10:28.364Z,5.47
2023-08-17T05:12:33.702Z,5.93
2023-08-17T05:14:39.691Z,5.88
2023-08-17T05:16:47.226Z,5.68
2023-08-17T05:18:52.428Z,5.55
2023-08-17T05:20:58.209Z,5.22
2023-08-17T05:23:03.317Z,6.65
2023-08-17T05:25:09.853Z,6.20
2023-08-17T05:27:16.725Z,5.00
2023-08-17T05:31:28.725Z,5.25
2023-08-17T05:33:36.989Z,5.20
2023-08-17T05:35:43.981Z,6.03
2023-08-17T05:37:49.106Z,5.60
2023-08-17T05:39:54.776Z,5.47
2023-08-17T05:41:57.228Z,5.28
2023-08-17T05:44:02.175Z,5.75
2023-08-17T05:46:08.394Z,5.90
2023-08-17T05:48:14.356Z,5.38
2023-08-17T05:50:22.248Z,6.03
2023-08-17T05:52:27.432Z,5.05
2023-08-17T05:54:34.697Z,5.28
2023-08-17T05:56:45.794Z,5.32
2023-08-17T05:58:50.794Z,6.03
2023-08-17T06:03:02.744Z,6.05
2023-08-17T06:05:08.888Z,5.40
2023-08-17T06:07:16.391Z,5.20
2023-08-17T06:09:21.402Z,5.35
2023-08-17T06:13:31.075Z,5.97
2023-08-17T06:17:40.756Z,6.20
2023-08-17T06:21:50.406Z,6.00
2023-08-17T06:23:57.951Z,5.93
2023-08-17T06:26:04.374Z,5.47
2023-08-17T06:28:07.463Z,6.47
2023-08-17T06:30:14.554Z,6.15
2023-08-17T06:32:19.443Z,6.38
2023-08-17T06:36:29.792Z,5.35
2023-08-17T06:38:34.729Z,6.93
2023-08-17T06:42:47.331Z,5.90
2023-08-17T06:46:58.181Z,6.88
2023-08-17T06:49:04.106Z,6.15
2023-08-17T06:51:09.072Z,6.78
2023-08-17T06:55:18.840Z,6.60
2023-08-17T06:57:26.915Z,5.18
2023-08-17T06:59:32.047Z,5.50
2023-08-17T07:03:42.767Z,6.82
2023-08-17T07:05:49.352Z,5.68
2023-08-17T07:07:54.370Z,6.70
2023-08-17T07:10:01.958Z,6.40
2023-08-17T07:12:07.707Z,6.53
2023-08-17T07:14:15.181Z,5.97
2023-08-17T07:16:20.427Z,5.50
2023-08-17T07:18:25.442Z,6.07
2023-08-17T07:22:32.980Z,5.57
2023-08-17T07:24:38.066Z,6.38
2023-08-17T07:26:43.283Z,6.47
2023-08-17T07:28:48.364Z,5.90
2023-08-17T07:33:00.980Z,6.03
2023-08-17T07:35:06.143Z,5.50
2023-08-17T07:37:11.839Z,4.95
2023-08-17T07:39:19.914Z,5.05
2023-08-17T07:41:24.994Z,5.28
2023-08-17T07:45:34.610Z,5.78
2023-08-17T07:47:45.266Z,4.82
2023-08-17T07:49:50.274Z,5.43
2023-08-17T07:51:55.269Z,5.90
2023-08-17T07:54:00.166Z,5.90
2023-08-17T07:58:10.574Z,5.40
2023-08-17T08:00:16.937Z,5.88
2023-08-17T08:02:21.977Z,5.22
2023-08-17T08:04:29.557Z,4.53
2023-08-17T08:06:34.935Z,5.00
2023-08-17T08:08:40.174Z,5.60
2023-08-17T08:10:45.296Z,5.53
2023-08-17T08:12:47.674Z,5.57
2023-08-17T08:14:52.885Z,5.30
2023-08-17T08:16:57.966Z,5.25
2023-08-17T08:19:02.990Z,5.15
2023-08-17T08:21:10.549Z,5.15
2023-08-17T08:23:16.606Z,5.05
2023-08-17T08:25:21.735Z,4.90
2023-08-17T08:27:26.777Z,6.25
2023-08-17T08:29:31.852Z,5.07
2023-08-17T08:31:36.951Z,6.40
2023-08-17T08:33:42.204Z,5.03
2023-08-17T08:35:47.245Z,5.10
2023-08-17T08:37:56.831Z,4.97
2023-08-17T08:40:02.124Z,4.18
2023-08-17T08:42:07.964Z,5.18
2023-08-17T08:44:13.178Z,4.43
2023-08-17T08:46:20.933Z,5.03
2023-08-17T08:48:30.139Z,5.10
2023-08-17T08:50:36.949Z,4.63
2023-08-17T08:52:48.798Z,5.47
2023-08-17T08:54:58.955Z,4.85
2023-08-17T08:57:07.788Z,5.20
2023-08-17T08:59:14.479Z,5.20
2023-08-17T09:01:20.678Z,5.38
2023-08-17T09:03:26.498Z,5.72
2023-08-17T09:05:32.854Z,4.72
2023-08-17T09:07:37.006Z,5.32
2023-08-17T09:09:42.265Z,4.93
2023-08-17T09:11:49.784Z,4.40
2023-08-17T09:13:56.556Z,5.55
2023-08-17T09:16:07.533Z,4.63
2023-08-17T09:18:14.290Z,5.10
2023-08-17T09:22:54.282Z,4.95
2023-08-17T09:25:02.853Z,5.20
2023-08-17T09:27:16.181Z,5.13
2023-08-17T09:29:22.690Z,4.95
2023-08-17T09:31:28.463Z,4.85
2023-08-17T09:33:34.557Z,4.70
2023-08-17T09:35:37.208Z,5.50
2023-08-17T09:37:42.182Z,4.97
2023-08-17T09:39:47.242Z,4.93
2023-08-17T09:41:52.292Z,5.03
2023-08-17T09:44:01.197Z,4.53
2023-08-17T09:46:09.009Z,5.35
2023-08-17T09:48:14.065Z,4.60
2023-08-17T09:50:19.021Z,5.60
2023-08-17T09:52:26.342Z,5.95
2023-08-17T09:54:34.287Z,5.35
2023-08-17T09:56:40.686Z,5.60
2023-08-17T09:58:45.614Z,6.25
2023-08-17T10:00:54.581Z,5.32
2023-08-17T10:03:08.218Z,4.50
2023-08-17T10:05:16.035Z,5.30
2023-08-17T10:07:23.333Z,4.82
2023-08-17T10:09:43.979Z,5.18
2023-08-17T10:14:13.270Z,6.18
2023-08-17T10:16:30.747Z,5.63
2023-08-17T10:18:46.288Z,5.18
2023-08-17T10:21:01.156Z,4.80
2023-08-17T10:23:16.027Z,5.28
2023-08-17T10:25:22.173Z,5.70
2023-08-17T10:27:27.369Z,5.07
2023-08-17T10:29:33.674Z,4.53
2023-08-17T10:31:42.261Z,5.25
2023-08-17T10:33:49.853Z,5.05
2023-08-17T10:35:55.898Z,5.20
2023-08-17T10:37:59.564Z,5.20
2023-08-17T10:40:04.682Z,4.55
2023-08-17T10:42:09.968Z,4.95
2023-08-17T10:44:15.054Z,5.03
2023-08-17T10:46:20.878Z,5.15
2023-08-17T10:48:37.374Z,4.40
2023-08-17T10:50:43.717Z,5.78
2023-08-17T10:52:49.264Z,5.40
2023-08-17T10:54:54.348Z,4.82
2023-08-17T10:56:59.536Z,4.72
2023-08-17T10:59:05.540Z,4.43
2023-08-17T11:01:08.539Z,5.05
2023-08-17T11:03:21.905Z,4.47
2023-08-17T11:05:44.992Z,4.55
2023-08-17T11:07:50.593Z,4.70
2023-08-17T11:09:57.869Z,4.28
2023-08-17T11:12:04.425Z,5.18
2023-08-17T11:14:09.513Z,5.30
2023-08-17T11:16:18.488Z,5.10
2023-08-17T11:18:24.052Z,4.70
2023-08-17T11:20:26.425Z,4.60
2023-08-17T11:22:34.980Z,4.68
2023-08-17T11:24:43.887Z,4.90
2023-08-17T11:26:50.579Z,4.93
2023-08-17T11:28:55.951Z,4.43
2023-08-17T11:31:01.716Z,4.75
2023-08-17T11:33:07.041Z,4.70
2023-08-17T11:35:14.681Z,4.30
2023-08-17T11:37:21.894Z,4.70
2023-08-17T11:39:29.775Z,4.40
2023-08-17T11:41:37.858Z,5.38
2023-08-17T11:43:42.793Z,4.20
2023-08-17T11:45:47.905Z,5.45
2023-08-17T11:47:56.103Z,4.80
2023-08-17T11:50:18.632Z,4.35
2023-08-17T11:52:26.112Z,4.45
2023-08-17T11:54:36.876Z,4.53
2023-08-17T11:56:42.906Z,4.72
2023-08-17T11:58:49.775Z,5.20
2023-08-17T12:00:55.335Z,4.15
2023-08-17T12:03:01.674Z,4.75
2023-08-17T12:05:08.752Z,5.30
2023-08-17T12:07:13.900Z,4.70
2023-08-17T12:09:18.939Z,4.20
2023-08-17T12:11:28.237Z,5.00
2023-08-17T12:13:34.705Z,4.90
2023-08-17T12:15:40.592Z,4.53
2023-08-17T12:17:50.645Z,4.85
2023-08-17T12:19:59.035Z,4.10
2023-08-17T12:22:04.117Z,4.55
2023-08-17T12:24:09.831Z,3.88
2023-08-17T12:26:21.826Z,4.63
2023-08-17T12:28:29.764Z,4.05
2023-08-17T12:30:37.538Z,3.63
2023-08-17T12:32:42.471Z,4.53
2023-08-17T12:34:47.623Z,4.22
2023-08-17T12:36:53.460Z,3.78
2023-08-17T12:38:59.086Z,3.78
2023-08-17T12:41:07.029Z,4.03
2023-08-17T12:43:15.395Z,5.25
2023-08-17T12:47:35.547Z,4.22
2023-08-17T12:49:40.833Z,3.63
2023-08-17T12:51:46.625Z,3.83
2023-08-17T12:53:51.642Z,4.55
2023-08-17T12:55:56.748Z,4.60
2023-08-17T12:58:02.252Z,4.47
2023-08-17T13:00:08.931Z,4.25
2023-08-17T13:02:16.532Z,4.65
2023-08-17T13:04:21.470Z,3.85
2023-08-17T13:06:36.426Z,4.40
2023-08-17T13:08:49.062Z,4.00
2023-08-17T13:10:53.985Z,3.58
2023-08-17T13:13:00.712Z,3.72
2023-08-17T13:15:05.864Z,4.13
2023-08-17T13:17:10.898Z,4.07
2023-08-17T13:19:15.898Z,4.47
2023-08-17T13:21:21.561Z,4.80
2023-08-17T13:23:26.578Z,3.72
2023-08-17T13:25:31.586Z,3.80
2023-08-17T13:27:37.102Z,3.97
2023-08-17T13:29:42.340Z,3.53
2023-08-17T13:31:47.274Z,3.78
2023-08-17T13:33:52.371Z,3.80
2023-08-17T13:36:00.450Z,3.92
2023-08-17T13:38:06.663Z,3.85
2023-08-17T13:40:13.036Z,4.00
2023-08-17T13:42:18.080Z,4.13
2023-08-17T13:44:23.095Z,4.40
2023-08-17T13:46:28.575Z,4.15
2023-08-17T13:48:33.595Z,3.53
2023-08-17T13:50:41.326Z,3.45
2023-08-17T13:52:49.074Z,3.80
2023-08-17T13:54:54.578Z,4.03
2023-08-17T13:56:59.615Z,3.28
2023-08-17T13:59:03.785Z,3.38
2023-08-17T14:01:08.810Z,3.53
2023-08-17T14:03:14.055Z,3.30
2023-08-17T14:05:19.244Z,3.72
2023-08-17T14:07:21.563Z,3.30
2023-08-17T14:09:29.247Z,3.35
2023-08-17T14:11:34.444Z,3.72
2023-08-17T14:13:40.436Z,3.92
2023-08-17T14:15:45.892Z,3.80
2023-08-17T14:17:51.194Z,3.42
2023-08-17T14:19:56.287Z,3.92
2023-08-17T14:22:02.198Z,3.60
2023-08-17T14:24:09.429Z,4.07
2023-08-17T14:26:17.065Z,4.53
2023-08-17T14:28:22.066Z,4.10
2023-08-17T14:30:27.550Z,4.20
2023-08-17T14:32:35.333Z,3.28
2023-08-17T14:34:40.945Z,3.72
2023-08-17T14:36:47.634Z,3.85
2023-08-17T14:38:52.951Z,4.45
2023-08-17T14:40:57.885Z,5.30
2023-08-17T14:43:02.920Z,3.75
2023-08-17T14:45:08.747Z,4.70
2023-08-17T14:47:15.051Z,4.00
2023-08-17T14:49:27.350Z,4.72
2023-08-17T14:51:33.178Z,4.40
2023-08-17T14:53:39.915Z,4.63
2023-08-17T14:55:50.024Z,4.47
2023-08-17T14:57:55.446Z,4.35
2023-08-17T15:00:03.763Z,3.88
2023-08-17T15:02:10.664Z,3.75
2023-08-17T15:04:15.782Z,4.65
2023-08-17T15:06:34.266Z,4.45
2023-08-17T15:08:40.286Z,4.40
2023-08-17T15:10:45.268Z,4.72
2023-08-17T15:12:50.390Z,4.80
2023-08-17T15:14:55.370Z,3.85
2023-08-17T15:17:04.007Z,4.93
2023-08-17T15:19:08.917Z,5.38
2023-08-17T15:21:13.884Z,4.63
2023-08-17T15:23:19.255Z,4.20
2023-08-17T15:25:24.342Z,4.55
2023-08-17T15:27:29.667Z,4.63
2023-08-17T15:29:34.924Z,5.47
2023-08-17T15:31:40.111Z,5.60
2023-08-17T15:33:47.775Z,5.75
2023-08-17T15:35:52.862Z,6.00
2023-08-17T15:37:55.350Z,6.05
2023-08-17T15:40:00.347Z,6.50
2023-08-17T15:42:02.853Z,5.95
2023-08-17T15:44:08.292Z,5.63
2023-08-17T15:46:14.782Z,4.50
2023-08-17T15:48:17.291Z,4.53
2023-08-17T15:50:24.878Z,4.60
2023-08-17T15:52:29.808Z,3.97
2023-08-17T15:54:36.736Z,4.03
2023-08-17T15:56:43.231Z,3.97
2023-08-17T15:58:48.200Z,3.70
2023-08-17T16:02:57.945Z,3.65
2023-08-17T16:05:02.981Z,3.53
2023-08-17T16:07:10.687Z,3.92
2023-08-17T16:09:15.604Z,3.60
2023-08-17T16:11:20.584Z,3.90
2023-08-17T16:15:30.294Z,4.95
2023-08-17T16:17:32.717Z,7.97
2023-08-17T16:19:37.717Z,6.28
2023-08-17T16:23:49.955Z,4.63
2023-08-17T16:25:55.029Z,5.60
2023-08-17T16:30:05.880Z,5.85
2023-08-17T16:32:10.103Z,4.22
2023-08-17T16:34:19.869Z,3.72
2023-08-17T16:36:25.344Z,2.85
2023-08-17T16:38:31.058Z,2.75
2023-08-17T16:40:39.483Z,4.32
2023-08-17T16:42:44.471Z,4.60
2023-08-17T16:46:51.697Z,5.35
2023-08-17T16:48:56.756Z,6.00
2023-08-17T16:53:06.605Z,5.22
2023-08-17T16:57:19.393Z,4.30
2023-08-17T16:59:22.040Z,4.28
2023-08-17T17:01:27.721Z,4.25
2023-08-17T17:03:32.735Z,4.20
2023-08-17T17:05:37.696Z,4.35
2023-08-17T17:07:42.757Z,4.45
2023-08-17T17:11:53.202Z,3.55
2023-08-17T17:14:00.845Z,3.22
2023-08-17T17:16:06.357Z,4.95
2023-08-17T17:18:11.516Z,3.88
2023-08-17T17:20:16.858Z,3.50
2023-08-17T17:22:22.420Z,4.10
2023-08-17T17:24:27.401Z,3.85
2023-08-17T17:28:34.624Z,3.25
2023-08-17T17:32:47.070Z,3.28
2023-08-17T17:34:52.203Z,3.30
2023-08-17T17:39:01.938Z,3.97
2023-08-17T17:43:13.556Z,3.67
2023-08-17T17:45:19.617Z,3.80
2023-08-17T17:47:32.893Z,3.40
2023-08-17T17:49:41.088Z,3.35
2023-08-17T17:51:48.655Z,3.97
2023-08-17T17:53:54.972Z,4.03
2023-08-17T17:56:00.521Z,3.75
2023-08-17T17:58:07.484Z,3.78
2023-08-17T18:00:14.932Z,3.72
2023-08-17T18:02:23.558Z,5.05
2023-08-17T18:04:33.372Z,4.88
2023-08-17T18:06:44.698Z,4.38
2023-08-17T18:08:52.126Z,3.90
2023-08-17T18:10:57.737Z,3.75
2023-08-17T18:13:02.872Z,3.35
2023-08-17T18:17:13.603Z,3.72
2023-08-17T18:19:19.832Z,3.17
2023-08-17T18:21:31.494Z,3.95
2023-08-17T18:23:37.343Z,2.92
2023-08-17T18:25:48.289Z,3.20
2023-08-17T18:28:03.807Z,4.57
2023-08-17T18:32:15.695Z,4.35
2023-08-17T18:34:22.400Z,4.00
2023-08-17T18:36:27.467Z,4.47
2023-08-17T18:38:34.881Z,3.40
2023-08-17T18:40:42.375Z,3.85
2023-08-17T18:42:47.519Z,3.03
2023-08-17T18:44:52.557Z,3.55
2023-08-17T18:49:02.655Z,3.05
2023-08-17T18:51:07.823Z,3.13
2023-08-17T18:53:15.630Z,3.30
2023-08-17T18:55:20.661Z,2.45
2023-08-17T18:59:42.187Z,2.80
2023-08-17T19:01:47.248Z,2.75
2023-08-17T19:03:52.270Z,3.13
2023-08-17T19:05:59.481Z,2.53
2023-08-17T19:08:04.603Z,2.65
2023-08-17T19:12:22.342Z,3.22
2023-08-17T19:14:28.640Z,2.88
2023-08-17T19:16:35.154Z,2.53
2023-08-17T19:18:42.521Z,2.78
2023-08-17T19:20:49.384Z,2.72
2023-08-17T19:22:57.088Z,2.67
2023-08-17T19:25:03.493Z,2.60
2023-08-17T19:27:11.663Z,2.70
2023-08-17T19:29:16.654Z,2.95
2023-08-17T19:31:22.092Z,2.38
2023-08-17T19:33:27.199Z,2.78
2023-08-17T19:35:33.832Z,2.90
2023-08-17T19:37:41.915Z,3.00
2023-08-17T19:39:44.643Z,2.90
2023-08-17T19:41:50.056Z,2.75
2023-08-17T19:43:57.923Z,2.85
2023-08-17T19:46:04.562Z,2.67
2023-08-17T19:48:10.563Z,2.72
2023-08-17T19:50:17.637Z,3.40
2023-08-17T19:52:24.262Z,3.65
2023-08-17T19:54:30.564Z,2.85
2023-08-17T19:56:33.227Z,2.53
2023-08-17T19:58:38.550Z,2.78
2023-08-17T20:00:47.316Z,3.60
2023-08-17T20:02:52.526Z,3.15
2023-08-17T20:04:58.197Z,2.70
2023-08-17T20:07:04.521Z,3.22
2023-08-17T20:09:10.210Z,2.90
2023-08-17T20:11:13.890Z,2.50
2023-08-17T20:13:20.954Z,2.90
2023-08-17T20:15:26.157Z,2.70
2023-08-17T20:17:34.070Z,2.75
2023-08-17T20:19:40.891Z,2.40
2023-08-17T20:21:45.944Z,2.33
2023-08-17T20:23:51.127Z,2.08
2023-08-17T20:28:03.578Z,1.80
2023-08-17T20:30:12.454Z,2.17
2023-08-17T20:32:20.431Z,1.90
2023-08-17T20:36:34.866Z,2.88
2023-08-17T20:38:40.384Z,2.20
2023-08-17T20:40:46.249Z,1.92
2023-08-17T20:42:53.714Z,2.78
2023-08-17T20:44:58.681Z,1.90
2023-08-17T20:47:08.384Z,1.98
2023-08-17T20:49:13.756Z,2.22
2023-08-17T20:51:21.304Z,1.77
2023-08-17T20:53:28.119Z,2.10
2023-08-17T20:55:33.330Z,1.90
2023-08-17T20:57:38.597Z,2.65
2023-08-17T20:59:47.059Z,2.22
2023-08-17T21:01:52.890Z,2.30
2023-08-17T21:04:01.534Z,2.35
2023-08-17T21:06:07.083Z,2.65
2023-08-17T21:08:15.617Z,2.65
2023-08-17T21:10:20.719Z,2.47
2023-08-17T21:12:25.711Z,2.20
2023-08-17T21:16:40.136Z,2.42
2023-08-17T21:18:45.906Z,2.25
2023-08-17T21:20:51.024Z,2.28
2023-08-17T21:25:14.500Z,3.42
2023-08-17T21:27:20.715Z,2.28
2023-08-17T21:29:27.976Z,2.10
2023-08-17T21:31:34.937Z,2.42
2023-08-17T21:33:40.592Z,1.95
2023-08-17T21:35:45.677Z,1.95
2023-08-17T21:39:52.868Z,2.35
2023-08-17T21:42:02.684Z,2.13
2023-08-17T21:44:10.629Z,2.38
2023-08-17T21:46:16.000Z,2.20
2023-08-17T21:48:21.049Z,2.40
2023-08-17T21:50:27.598Z,2.00
2023-08-17T21:54:35.366Z,2.85
2023-08-17T21:56:40.453Z,2.22
2023-08-17T22:00:53.037Z,2.35
2023-08-17T22:02:56.055Z,2.30
2023-08-17T22:05:01.164Z,2.70
2023-08-17T22:07:03.627Z,1.77
2023-08-17T22:09:08.776Z,2.28
2023-08-17T22:13:18.626Z,2.20
2023-08-17T22:17:31.412Z,2.13
2023-08-17T22:19:36.850Z,2.65
2023-08-17T22:21:41.919Z,2.63
2023-08-17T22:23:46.881Z,2.67
2023-08-17T22:25:51.849Z,2.50
2023-08-17T22:27:56.937Z,2.50
2023-08-17T22:29:59.458Z,2.63
2023-08-17T22:32:07.754Z,2.50
2023-08-17T22:34:13.432Z,2.55
2023-08-17T22:36:21.308Z,2.47
2023-08-17T22:40:31.382Z,2.80
2023-08-17T22:42:36.743Z,2.30
2023-08-17T22:44:41.782Z,2.45
2023-08-17T22:46:48.191Z,2.50
2023-08-17T22:48:55.851Z,2.33
2023-08-17T22:50:58.270Z,2.50
2023-08-17T22:53:03.365Z,2.60
2023-08-17T22:57:15.680Z,2.67
2023-08-17T22:59:21.246Z,3.38
2023-08-17T23:01:26.219Z,3.00
2023-08-17T23:05:38.776Z,2.92
2023-08-17T23:07:43.992Z,2.67
2023-08-17T23:11:54.466Z,2.78
2023-08-17T23:13:59.450Z,2.70
2023-08-17T23:16:04.982Z,2.70
2023-08-17T23:18:10.364Z,2.60
2023-08-17T23:20:16.051Z,3.03
2023-08-17T23:22:21.021Z,2.90
2023-08-17T23:26:30.829Z,3.40
2023-08-17T23:30:43.064Z,2.65
2023-08-17T23:32:48.170Z,2.85
2023-08-17T23:36:58.028Z,2.72
2023-08-17T23:41:12.554Z,3.05
2023-08-17T23:45:22.943Z,2.95
2023-08-17T23:47:28.158Z,3.10
2023-08-17T23:49:33.413Z,3.28
2023-08-17T23:53:43.218Z,2.83
2023-08-17T23:57:55.584Z,2.70
